createdAt,value
2018-11-27T00:02:58.640Z,19.67
2018-11-27T00:08:02.464Z,19.37
2018-11-27T00:13:06.338Z,19.63
2018-11-27T00:18:10.148Z,18.97
2018-11-27T00:23:13.955Z,19.60
2018-11-27T00:28:17.752Z,19.27
2018-11-27T00:33:21.619Z,18.53
2018-11-27T00:38:25.449Z,19.63
2018-11-27T00:43:29.271Z,19.98
2018-11-27T00:48:33.305Z,20.03
2018-11-27T00:53:37.156Z,19.17
2018-11-27T00:58:40.975Z,19.70
2018-11-27T01:03:45.060Z,18.20
2018-11-27T01:08:51.787Z,18.90
2018-11-27T01:13:55.821Z,17.97
2018-11-27T01:18:59.644Z,18.70
2018-11-27T01:24:03.455Z,19.10
2018-11-27T01:29:07.313Z,17.93
2018-11-27T01:34:11.179Z,19.17
2018-11-27T01:39:15.024Z,18.55
2018-11-27T01:44:19.088Z,17.03
2018-11-27T01:49:22.963Z,18.37
2018-11-27T01:54:26.814Z,16.90
2018-11-27T01:59:30.916Z,19.17
2018-11-27T02:04:35.053Z,18.00
2018-11-27T02:09:38.920Z,17.20
2018-11-27T02:14:42.735Z,17.13
2018-11-27T02:19:46.575Z,16.97
2018-11-27T02:24:50.657Z,18.10
2018-11-27T02:29:54.491Z,16.75
2018-11-27T02:34:58.320Z,18.13
2018-11-27T02:40:02.372Z,17.67
2018-11-27T02:45:09.064Z,17.83
2018-11-27T02:50:14.817Z,17.27
2018-11-27T02:55:26.223Z,16.80
2018-11-27T03:00:30.019Z,15.93
2018-11-27T03:05:35.790Z,16.73
2018-11-27T03:10:39.821Z,14.83
2018-11-27T03:15:43.624Z,16.00
2018-11-27T03:20:47.442Z,15.38
2018-11-27T03:25:51.251Z,15.27
2018-11-27T03:30:55.084Z,17.07
2018-11-27T03:35:58.929Z,16.10
2018-11-27T03:41:03.009Z,16.17
2018-11-27T03:46:07.565Z,16.50
2018-11-27T03:51:11.637Z,15.80
2018-11-27T03:56:15.456Z,15.90
2018-11-27T04:01:19.289Z,16.40
2018-11-27T04:06:23.136Z,16.90
2018-11-27T04:11:27.229Z,16.33
2018-11-27T04:16:31.059Z,16.63
2018-11-27T04:21:34.872Z,16.33
2018-11-27T04:26:38.736Z,16.73
2018-11-27T04:31:42.880Z,16.00
2018-11-27T04:36:46.691Z,16.93
2018-11-27T04:41:50.503Z,16.65
2018-11-27T04:46:54.315Z,16.60
2018-11-27T04:51:58.132Z,15.77
2018-11-27T04:57:01.972Z,14.90
2018-11-27T05:02:06.603Z,15.63
2018-11-27T05:07:10.544Z,16.13
2018-11-27T05:12:14.603Z,16.23
2018-11-27T05:17:18.420Z,16.57
2018-11-27T05:22:22.331Z,15.70
2018-11-27T05:27:26.191Z,15.57
2018-11-27T05:32:30.266Z,16.73
2018-11-27T05:37:34.078Z,16.00
2018-11-27T05:42:37.927Z,15.23
2018-11-27T05:47:42.074Z,15.80
2018-11-27T05:52:46.233Z,15.83
2018-11-27T05:57:51.347Z,15.03
2018-11-27T06:02:57.473Z,15.63
2018-11-27T06:08:00.201Z,15.60
2018-11-27T06:13:04.016Z,15.37
2018-11-27T06:18:07.895Z,15.53
2018-11-27T06:23:11.755Z,14.93
2018-11-27T06:28:15.584Z,16.37
2018-11-27T06:33:19.448Z,15.30
2018-11-27T06:38:23.570Z,15.63
2018-11-27T06:43:27.676Z,16.37
2018-11-27T06:48:31.779Z,16.20
2018-11-27T06:53:35.601Z,15.63
2018-11-27T06:58:39.468Z,15.50
2018-11-27T07:03:43.563Z,16.13
2018-11-27T07:08:47.646Z,15.50
2018-11-27T07:13:51.446Z,15.30
2018-11-27T07:18:55.292Z,15.73
2018-11-27T07:23:59.084Z,14.93
2018-11-27T07:29:02.875Z,15.53
2018-11-27T07:34:06.940Z,14.80
2018-11-27T07:39:11.071Z,14.23
2018-11-27T07:44:15.208Z,14.53
2018-11-27T07:49:19.251Z,15.23
2018-11-27T07:54:23.170Z,14.57
2018-11-27T07:59:27.007Z,14.23
2018-11-27T08:04:30.819Z,14.20
2018-11-27T08:09:34.872Z,13.90
2018-11-27T08:14:38.696Z,14.30
2018-11-27T08:19:42.777Z,13.70
2018-11-27T08:24:47.315Z,13.97
2018-11-27T08:29:50.648Z,14.67
2018-11-27T08:34:54.543Z,13.57
2018-11-27T08:39:59.211Z,13.40
2018-11-27T08:45:03.063Z,13.13
2018-11-27T08:50:19.457Z,13.43
2018-11-27T08:55:24.616Z,12.87
2018-11-27T09:00:28.713Z,13.23
2018-11-27T09:05:32.526Z,12.80
2018-11-27T09:10:36.519Z,12.63
2018-11-27T09:15:40.340Z,13.80
2018-11-27T09:20:44.195Z,13.60
2018-11-27T09:25:48.026Z,13.50
2018-11-27T09:30:52.572Z,13.33
2018-11-27T09:35:57.597Z,13.03
2018-11-27T09:41:01.419Z,12.60
2018-11-27T09:46:05.520Z,12.10
2018-11-27T09:51:09.612Z,15.03
2018-11-27T09:56:13.582Z,12.70
2018-11-27T10:01:17.402Z,13.27
2018-11-27T10:06:21.510Z,12.87
2018-11-27T10:11:25.322Z,13.03
2018-11-27T10:16:29.127Z,12.73
2018-11-27T10:21:33.160Z,12.37
2018-11-27T10:26:37.273Z,12.83
2018-11-27T10:31:41.529Z,13.17
2018-11-27T10:36:45.592Z,12.47
2018-11-27T10:41:49.424Z,11.97
2018-11-27T10:46:53.259Z,11.97
2018-11-27T10:51:57.078Z,10.27
2018-11-27T10:57:00.887Z,11.17
2018-11-27T11:02:10.381Z,11.03
2018-11-27T11:07:14.180Z,11.13
2018-11-27T11:12:17.999Z,11.67
2018-11-27T11:17:21.815Z,10.83
2018-11-27T11:22:25.617Z,9.77
2018-11-27T11:27:29.490Z,10.90
2018-11-27T11:32:33.304Z,10.47
2018-11-27T11:37:37.122Z,11.30
2018-11-27T11:42:40.998Z,10.00
2018-11-27T11:47:45.036Z,10.73
2018-11-27T11:52:50.231Z,9.93
2018-11-27T11:57:54.087Z,9.40
2018-11-27T12:02:57.919Z,9.27
2018-11-27T12:08:01.726Z,8.70
2018-11-27T12:13:06.978Z,8.60
2018-11-27T12:18:10.858Z,8.65
2018-11-27T12:23:14.663Z,8.57
2018-11-27T12:28:18.462Z,8.17
2018-11-27T12:33:22.299Z,9.20
2018-11-27T12:38:26.134Z,9.53
2018-11-27T12:43:29.959Z,8.87
2018-11-27T12:48:34.055Z,9.07
2018-11-27T12:53:38.494Z,8.93
2018-11-27T12:58:42.338Z,8.73
2018-11-27T13:03:46.222Z,8.47
2018-11-27T13:08:50.047Z,8.17
2018-11-27T13:13:53.874Z,8.83
2018-11-27T13:18:58.003Z,8.23
2018-11-27T13:24:01.877Z,8.35
2018-11-27T13:29:06.359Z,8.70
2018-11-27T13:34:12.035Z,8.87
2018-11-27T13:39:31.276Z,8.40
2018-11-27T13:44:35.131Z,9.53
2018-11-27T13:49:38.976Z,9.33
2018-11-27T13:54:43.814Z,8.30
2018-11-27T13:59:47.933Z,7.60
2018-11-27T14:04:51.764Z,8.03
2018-11-27T14:09:55.883Z,7.83
2018-11-27T14:14:59.710Z,7.47
2018-11-27T14:20:03.823Z,7.30
2018-11-27T14:25:09.575Z,6.97
2018-11-27T14:30:15.482Z,7.73
2018-11-27T14:35:20.868Z,7.80
2018-11-27T14:40:26.862Z,7.97
2018-11-27T14:45:30.659Z,7.60
2018-11-27T14:50:34.447Z,7.57
2018-11-27T14:55:38.520Z,7.93
2018-11-27T15:00:42.373Z,7.90
2018-11-27T15:05:46.407Z,8.03
2018-11-27T15:10:50.455Z,8.73
2018-11-27T15:15:54.259Z,9.47
2018-11-27T15:20:58.315Z,9.73
2018-11-27T15:26:02.147Z,9.77
2018-11-27T15:31:06.702Z,10.28
2018-11-27T15:36:10.609Z,11.07
2018-11-27T15:41:14.449Z,10.90
2018-11-27T15:46:18.299Z,12.67
2018-11-27T15:51:22.231Z,13.63
2018-11-27T15:56:26.077Z,11.07
2018-11-27T16:01:30.204Z,10.70
2018-11-27T16:06:34.009Z,10.70
2018-11-27T16:11:38.621Z,9.87
2018-11-27T16:16:42.771Z,10.53
2018-11-27T16:21:46.604Z,10.40
2018-11-27T16:26:50.435Z,10.93
2018-11-27T16:31:54.361Z,11.80
2018-11-27T16:42:12.343Z,13.43
2018-11-27T16:47:15.072Z,13.83
2018-11-27T16:52:18.879Z,15.50
2018-11-27T16:57:22.754Z,15.57
2018-11-27T17:02:27.192Z,14.33
2018-11-27T17:07:31.098Z,15.00
2018-11-27T17:12:34.894Z,14.27
2018-11-27T17:17:38.736Z,15.07
2018-11-27T17:22:42.537Z,15.03
2018-11-27T17:27:46.474Z,15.63
2018-11-27T17:32:50.655Z,14.37
2018-11-27T17:37:54.512Z,14.33
2018-11-27T17:42:58.356Z,17.83
2018-11-27T17:48:02.474Z,14.67
2018-11-27T17:53:07.424Z,13.58
2018-11-27T17:58:11.516Z,13.63
2018-11-27T18:03:15.384Z,14.80
2018-11-27T18:08:19.162Z,14.40
2018-11-27T18:13:23.038Z,14.57
2018-11-27T18:18:27.026Z,14.17
2018-11-27T18:23:31.131Z,14.80
2018-11-27T18:28:35.230Z,14.20
2018-11-27T18:33:39.059Z,14.33
2018-11-27T18:38:42.896Z,14.73
2018-11-27T18:43:46.707Z,14.47
2018-11-27T18:48:50.592Z,14.57
2018-11-27T18:53:55.123Z,15.00
2018-11-27T18:58:58.255Z,15.60
2018-11-27T19:04:02.077Z,15.67
2018-11-27T19:09:08.823Z,15.15
2018-11-27T19:14:12.655Z,15.73
2018-11-27T19:19:16.684Z,14.67
2018-11-27T19:24:20.721Z,16.50
2018-11-27T19:29:24.533Z,16.37
2018-11-27T19:34:28.634Z,16.47
2018-11-27T19:39:32.459Z,16.00
2018-11-27T19:44:36.370Z,16.07
2018-11-27T19:49:40.535Z,16.83
2018-11-27T19:54:44.637Z,14.67
2018-11-27T19:59:48.483Z,16.93
2018-11-27T20:04:52.327Z,16.63
2018-11-27T20:09:56.418Z,17.07
2018-11-27T20:15:00.521Z,16.77
2018-11-27T20:20:05.142Z,16.10
2018-11-27T20:25:11.413Z,15.47
2018-11-27T20:30:16.807Z,16.85
2018-11-27T20:35:20.632Z,16.77
2018-11-27T20:40:24.498Z,18.03
2018-11-27T20:45:28.556Z,17.17
2018-11-27T20:50:32.354Z,16.47
2018-11-27T20:55:36.311Z,16.43
2018-11-27T21:00:41.612Z,15.73
2018-11-27T21:05:45.610Z,17.20
2018-11-27T21:10:49.411Z,15.93
2018-11-27T21:15:53.317Z,16.57
2018-11-27T21:20:57.141Z,17.00
2018-11-27T21:26:04.918Z,17.30
2018-11-27T21:31:10.198Z,17.67
2018-11-27T21:36:14.010Z,16.80
2018-11-27T21:41:17.834Z,16.13
2018-11-27T21:46:21.686Z,16.63
2018-11-27T21:51:25.519Z,15.90
2018-11-27T21:56:29.579Z,16.70
2018-11-27T22:01:34.533Z,15.95
2018-11-27T22:06:37.486Z,16.53
2018-11-27T22:11:41.532Z,16.67
2018-11-27T22:16:45.365Z,16.50
2018-11-27T22:21:49.191Z,16.23
2018-11-27T22:26:53.078Z,17.17
2018-11-27T22:31:57.465Z,15.83
2018-11-27T22:37:01.288Z,17.27
2018-11-27T22:42:05.614Z,17.53
2018-11-27T22:47:09.411Z,18.65
2018-11-27T22:52:13.493Z,17.45
2018-11-27T22:57:17.300Z,18.07
2018-11-27T23:02:21.175Z,16.90
2018-11-27T23:07:30.559Z,18.73
2018-11-27T23:12:34.610Z,19.30
2018-11-27T23:17:38.426Z,17.82
2018-11-27T23:22:42.609Z,18.57
2018-11-27T23:27:46.422Z,17.95
2018-11-27T23:32:50.358Z,17.50
2018-11-27T23:37:54.229Z,17.93
2018-11-27T23:42:58.587Z,16.83
2018-11-27T23:48:02.419Z,17.77
2018-11-27T23:53:06.599Z,17.95
2018-11-27T23:58:10.463Z,17.40
